Flight Number: EUR2104 Duration: 1:15
Departure: Hamburg Fuhlsbuettel (EDDH) at 08:00 Distance: 324 Nm
Arrival: Munich Int'l (EDDM) at 09:15 Equipment: DHC8

Weather Information
Hamburg-Fuhlsbuettel, Germany (EDDH) 53-38N 010-00E 15M Nov 19, 2018 - 04:50 PM EST / 2018.11.19 2150 UTC
Wind: from the ENE (070 degrees) at 13 MPH (11 KT):0
Visibility: greater than 7 mile(s):0
Sky conditions: mostly cloudy Temperature: 41 F (5 C) Dew Point: 32 F (0 C) Relative Humidity: 70% Pressure (altimeter): 30.21 in. Hg (1023 hPa)
ob: EDDH 192150Z 07011KT 9999 BKN025 05/00 Q1023 NOSIG cycle: 22
Sunrise: 06:59 Sunset: 15:11 (UTC)

Munchen, Germany (EDDM) 48-21N 011-47E Nov 19, 2018 - 04:50 PM EST / 2018.11.19 2150 UTC
Wind: from the E (080 degrees) at 13 MPH (11 KT):0
Visibility: greater than 7 mile(s):0
Sky conditions: overcast Temperature: 32 F (0 C)
Windchill: 23 F (-5 C):1 Dew Point: 26 F (-3 C) Relative Humidity: 80% Pressure (altimeter): 29.77 in. Hg (1008 hPa)
ob: EDDM 192150Z 08011KT 9999 OVC013 M00/M03 Q1008 NOSIG cycle: 22
Sunrise: 06:30 Sunset: 15:25 (UTC)

TAF:2018/11/19 18:27 TAF EDDM 191700Z 1918/2024 08015KT 9999 BKN015 TEMPO 1918/2012 BKN012 BECMG 1923/2001 09010KT PROB30 TEMPO 2004/2007 4500 -SN BKN009 BECMG 2013/2015 09005KT BECMG 2019/2023 BKN007

Previous Pireps for this route
Date Aircraft Flight time Fuel used Landing rate On time
2012-08-12DHC81.1315660Yes
2014-12-24DHC81.327522-162No
2017-01-10B73701.247868-452Charter
(pireps marked green are flown by you)

Route map